Time;durP1;ratioP1;P1;durP2;ratioP2;P2;SDS_P1;SDS_P2;PMS_P1;PMS_P2;Temp;Humidity;BMP_temperature;BMP_pressure;BME280_temperature;BME280_humidity;BME280_pressure;Samples;Min_cycle;Max_cycle;Signal;HPM_P1;HPM_P2
2023/02/27 00:02:06;;;;;;;;;;;1.20;99.90;;;;;;6187964;23;20259;-82
2023/02/27 00:04:32;;;;;;;;;;;1.20;99.90;;;;;;6186928;23;20251;-82
2023/02/27 00:06:57;;;;;;;;;;;1.10;99.90;;;;;;6187654;23;19908;-82
2023/02/27 00:09:23;;;;;;;;;;;1.10;99.90;;;;;;6186711;23;19932;-82
2023/02/27 00:11:48;;;;;;;;;;;1.00;99.90;;;;;;6187685;23;19906;-82
2023/02/27 00:14:13;;;;;;;;;;;1.00;99.90;;;;;;6188551;23;19904;-82
2023/02/27 00:16:39;;;;;;;;;;;0.90;99.90;;;;;;6188374;23;19900;-82
2023/02/27 00:19:04;;;;;;;;;;;0.90;99.90;;;;;;6185715;23;19907;-82
2023/02/27 00:21:30;;;;;;;;;;;1.00;99.90;;;;;;6186292;23;19927;-83
2023/02/27 00:23:56;;;;;;;;;;;1.00;99.90;;;;;;6188159;23;20220;-82
2023/02/27 00:26:21;;;;;;;;;;;1.00;99.90;;;;;;6187101;23;19991;-83
2023/02/27 00:28:47;;;;;;;;;;;1.00;99.90;;;;;;6186246;23;20242;-82
2023/02/27 00:31:12;;;;;;;;;;;1.00;99.90;;;;;;6186810;23;20354;-83
2023/02/27 00:33:38;;;;;;;;;;;1.00;99.90;;;;;;6187149;23;20086;-83
2023/02/27 00:36:03;;;;;;;;;;;0.90;99.90;;;;;;6187325;23;19904;-82
2023/02/27 00:38:29;;;;;;;;;;;0.90;99.90;;;;;;6187167;23;19944;-82
2023/02/27 00:40:55;;;;;;;;;;;0.90;99.90;;;;;;6185962;23;19911;-82
2023/02/27 00:43:20;;;;;;;;;;;0.90;99.90;;;;;;6187751;23;20343;-82
2023/02/27 00:45:46;;;;;;;;;;;0.90;99.90;;;;;;6186231;23;19904;-82
2023/02/27 00:48:12;;;;;;;;;;;0.80;99.90;;;;;;6188047;23;19959;-82
2023/02/27 00:50:37;;;;;;;;;;;0.80;99.90;;;;;;6185683;23;19908;-82
2023/02/27 00:53:02;;;;;;;;;;;0.80;99.90;;;;;;6187833;23;19904;-82
2023/02/27 00:55:28;;;;;;;;;;;0.80;99.90;;;;;;6187831;23;19907;-82
2023/02/27 00:57:53;;;;;;;;;;;0.80;99.90;;;;;;6187878;23;19927;-82
2023/02/27 01:00:19;;;;;;;;;;;0.80;99.90;;;;;;6187063;23;20301;-82
2023/02/27 01:02:44;;;;;;;;;;;0.80;99.90;;;;;;6187761;23;19911;-82
2023/02/27 01:05:10;;;;;;;;;;;0.70;99.90;;;;;;6188944;23;19908;-82
2023/02/27 01:07:36;;;;;;;;;;;0.70;99.90;;;;;;6188776;23;19924;-82
2023/02/27 01:10:02;;;;;;;;;;;0.60;99.90;;;;;;6185723;23;19912;-83
2023/02/27 01:12:28;;;;;;;;;;;0.60;99.90;;;;;;6187404;23;19927;-82
2023/02/27 01:14:53;;;;;;;;;;;0.50;99.90;;;;;;6187364;23;19900;-80
2023/02/27 01:17:19;;;;;;;;;;;0.40;99.90;;;;;;6188418;23;19907;-82
2023/02/27 01:19:44;;;;;;;;;;;0.40;99.90;;;;;;6185961;23;19958;-82
2023/02/27 01:22:10;;;;;;;;;;;0.30;99.90;;;;;;6187018;23;19900;-82
2023/02/27 01:24:35;;;;;;;;;;;0.30;99.90;;;;;;6187735;23;19934;-82
2023/02/27 01:27:01;;;;;;;;;;;0.40;99.90;;;;;;6186482;23;19904;-82
2023/02/27 01:29:26;;;;;;;;;;;0.40;99.90;;;;;;6187451;23;19904;-82
2023/02/27 01:31:51;;;;;;;;;;;0.40;99.90;;;;;;6188952;23;19904;-82
2023/02/27 01:34:17;;;;;;;;;;;0.40;99.90;;;;;;6189210;23;19908;-82
2023/02/27 01:36:42;;;;;;;;;;;0.40;99.90;;;;;;6188473;23;20321;-82
2023/02/27 01:39:08;;;;;;;;;;;0.40;99.90;;;;;;6187664;23;19946;-82
2023/02/27 01:41:34;;;;;;;;;;;0.40;99.90;;;;;;6187975;23;19900;-83
2023/02/27 01:44:00;;;;;;;;;;;0.40;99.90;;;;;;6188986;23;19979;-82
2023/02/27 01:46:27;;;;;;;;;;;0.40;99.90;;;;;;6187194;23;20263;-83
2023/02/27 01:48:58;;;;;;;;;;;0.40;99.90;;;;;;6188519;23;19900;-82
2023/02/27 01:51:24;;;;;;;;;;;0.40;99.90;;;;;;6187540;23;20241;-82
2023/02/27 01:53:51;;;;;;;;;;;0.40;99.90;;;;;;6190611;23;19905;-82
2023/02/27 01:56:19;;;;;;;;;;;0.30;99.90;;;;;;6190189;23;19904;-82
2023/02/27 01:58:45;;;;;;;;;;;0.30;99.90;;;;;;6189368;23;19900;-82
2023/02/27 02:01:11;;;;;;;;;;;0.30;99.90;;;;;;6187958;23;19922;-82
2023/02/27 02:03:40;;;;;;;;;;;0.30;99.90;;;;;;6189351;23;19967;-82
2023/02/27 02:06:06;;;;;;;;;;;0.30;99.90;;;;;;6190125;23;19912;-82
2023/02/27 02:08:37;;;;;;;;;;;0.20;99.90;;;;;;6190053;23;19900;-82
2023/02/27 02:11:04;;;;;;;;;;;0.20;99.90;;;;;;6190631;23;19907;-82
2023/02/27 02:13:30;;;;;;;;;;;0.20;99.90;;;;;;6189641;23;19995;-82
2023/02/27 02:16:14;;;;;;;;;;;0.20;99.90;;;;;;6189832;23;19950;-82
2023/02/27 02:18:46;;;;;;;;;;;0.20;99.90;;;;;;6185723;23;19911;-82
2023/02/27 02:21:26;;;;;;;;;;;0.10;99.90;;;;;;6189147;23;19904;-83
2023/02/27 02:24:04;;;;;;;;;;;0.10;99.90;;;;;;6187284;23;19926;-82
2023/02/27 02:26:38;;;;;;;;;;;0.10;99.90;;;;;;6187693;23;20402;-82
2023/02/27 02:29:22;;;;;;;;;;;0.00;99.90;;;;;;6189461;23;19975;-82
2023/02/27 02:32:07;;;;;;;;;;;0.00;1.00;;;;;;6189574;23;19904;-82
2023/02/27 02:34:51;;;;;;;;;;;0.00;1.00;;;;;;6188670;23;19978;-81
2023/02/27 02:37:43;;;;;;;;;;;0.00;1.00;;;;;;6189232;23;19911;-83
2023/02/27 02:40:17;;;;;;;;;;;0.00;1.00;;;;;;6188685;23;19901;-82
2023/02/27 02:42:43;;;;;;;;;;;-0.10;1.00;;;;;;6189381;23;19999;-82
2023/02/27 02:45:08;;;;;;;;;;;-0.10;1.00;;;;;;6187179;23;19911;-82
2023/02/27 02:47:51;;;;;;;;;;;-0.10;1.00;;;;;;6189140;23;19901;-82
2023/02/27 02:50:23;;;;;;;;;;;-0.10;1.00;;;;;;6189111;23;20274;-82
2023/02/27 02:52:53;;;;;;;;;;;-0.10;1.00;;;;;;6186204;23;19900;-81
2023/02/27 02:55:18;;;;;;;;;;;-0.10;1.00;;;;;;6189567;23;19900;-82
2023/02/27 02:57:50;;;;;;;;;;;-0.10;1.00;;;;;;6187089;23;19900;-82
2023/02/27 03:00:18;;;;;;;;;;;-0.10;1.00;;;;;;6187091;23;19901;-83
2023/02/27 03:02:56;;;;;;;;;;;-0.10;1.00;;;;;;6187639;23;19908;-83
2023/02/27 03:05:44;;;;;;;;;;;-0.10;1.00;;;;;;6189123;23;20520;-83
2023/02/27 03:08:12;;;;;;;;;;;-0.10;1.00;;;;;;6177879;23;20220;-82
2023/02/27 03:10:41;;;;;;;;;;;-0.10;1.00;;;;;;6188256;23;19912;-82
2023/02/27 03:13:10;;;;;;;;;;;-0.10;1.00;;;;;;6189306;23;19926;-82
2023/02/27 03:15:44;;;;;;;;;;;-0.10;1.00;;;;;;6187916;23;19900;-82
2023/02/27 03:18:17;;;;;;;;;;;-0.10;1.00;;;;;;6190497;23;19900;-82
2023/02/27 03:20:46;;;;;;;;;;;-0.10;1.00;;;;;;6191325;23;19934;-81
2023/02/27 03:23:14;;;;;;;;;;;-0.10;1.00;;;;;;6189316;23;20351;-82
2023/02/27 03:25:44;;;;;;;;;;;-0.10;1.00;;;;;;6188216;23;19926;-82
2023/02/27 03:28:14;;;;;;;;;;;-0.20;1.00;;;;;;6184706;23;19900;-82
2023/02/27 03:30:43;;;;;;;;;;;-0.20;1.00;;;;;;6188554;23;19967;-82
2023/02/27 03:33:15;;;;;;;;;;;-0.20;1.00;;;;;;6187840;23;19975;-81
2023/02/27 03:35:41;;;;;;;;;;;-0.20;1.00;;;;;;6188474;23;19911;-82
2023/02/27 03:38:10;;;;;;;;;;;-0.20;1.00;;;;;;6187989;23;19904;-82
2023/02/27 03:40:44;;;;;;;;;;;-0.30;1.00;;;;;;6188187;23;19931;-82
2023/02/27 03:43:19;;;;;;;;;;;-0.30;1.00;;;;;;6186638;23;19904;-83
2023/02/27 03:45:55;;;;;;;;;;;-0.30;1.00;;;;;;6188074;23;19915;-82
2023/02/27 03:48:21;;;;;;;;;;;-0.30;1.00;;;;;;6188487;23;19907;-82
2023/02/27 03:50:46;;;;;;;;;;;-0.30;1.00;;;;;;6188683;23;19908;-82
2023/02/27 03:53:15;;;;;;;;;;;-0.30;1.00;;;;;;6188477;23;20312;-82
2023/02/27 03:55:42;;;;;;;;;;;-0.40;1.00;;;;;;6187509;23;19900;-82
2023/02/27 03:58:07;;;;;;;;;;;-0.40;1.00;;;;;;6187412;23;19999;-82
2023/02/27 04:00:33;;;;;;;;;;;-0.40;1.00;;;;;;6186170;23;20364;-82
2023/02/27 04:02:59;;;;;;;;;;;-0.40;1.00;;;;;;6188342;23;19900;-82
2023/02/27 04:05:26;;;;;;;;;;;-0.40;1.00;;;;;;6187594;23;19908;-82
2023/02/27 04:08:18;;;;;;;;;;;-0.40;1.00;;;;;;6188663;23;19986;-83
2023/02/27 04:11:02;;;;;;;;;;;-0.40;1.00;;;;;;6186994;23;19915;-82
2023/02/27 04:13:35;;;;;;;;;;;-0.40;1.00;;;;;;6188094;23;20280;-82
2023/02/27 04:16:01;;;;;;;;;;;-0.40;1.00;;;;;;6188072;23;19904;-82
2023/02/27 04:18:32;;;;;;;;;;;-0.40;1.00;;;;;;6187011;23;19908;-82
2023/02/27 04:21:04;;;;;;;;;;;-0.40;1.00;;;;;;6188173;23;19900;-82
2023/02/27 04:23:29;;;;;;;;;;;-0.50;1.00;;;;;;6188368;23;19900;-82
2023/02/27 04:26:13;;;;;;;;;;;-0.50;1.00;;;;;;6187488;23;19911;-82
2023/02/27 04:28:39;;;;;;;;;;;-0.50;1.00;;;;;;6187786;23;19907;-82
2023/02/27 04:31:10;;;;;;;;;;;-0.50;1.00;;;;;;6188932;23;19904;-82
2023/02/27 04:33:39;;;;;;;;;;;-0.50;1.00;;;;;;6187415;23;19905;-82
2023/02/27 04:36:07;;;;;;;;;;;-0.50;1.00;;;;;;6187930;23;19901;-82
2023/02/27 04:38:39;;;;;;;;;;;-0.50;1.00;;;;;;6185925;23;20370;-82
2023/02/27 04:41:07;;;;;;;;;;;-0.50;1.00;;;;;;6188126;23;19907;-82
2023/02/27 04:43:34;;;;;;;;;;;-0.50;1.00;;;;;;6186729;23;19935;-82
2023/02/27 04:46:00;;;;;;;;;;;-0.50;1.00;;;;;;6185300;23;19904;-82
2023/02/27 04:48:32;;;;;;;;;;;-0.50;1.00;;;;;;6187724;23;19901;-82
2023/02/27 04:51:11;;;;;;;;;;;-0.60;1.00;;;;;;6186338;23;20438;-82
2023/02/27 04:53:44;;;;;;;;;;;-0.60;1.00;;;;;;6188457;23;19978;-82
2023/02/27 04:56:16;;;;;;;;;;;-0.60;2.30;;;;;;6186173;23;20331;-81
2023/02/27 04:58:47;;;;;;;;;;;-0.60;70.10;;;;;;6186342;23;19905;-82
2023/02/27 05:01:33;;;;;;;;;;;-0.70;49.20;;;;;;6188322;23;19951;-82
2023/02/27 05:04:00;;;;;;;;;;;-0.70;54.60;;;;;;6186604;23;19939;-82
2023/02/27 05:06:30;;;;;;;;;;;-0.70;53.20;;;;;;6188009;23;20570;-82
2023/02/27 05:08:56;;;;;;;;;;;-0.70;45.00;;;;;;6189383;23;19910;-82
2023/02/27 05:11:27;;;;;;;;;;;-0.70;32.10;;;;;;6189690;23;19900;-82
2023/02/27 05:13:54;;;;;;;;;;;-0.70;17.00;;;;;;6189851;23;20391;-82
2023/02/27 05:16:38;;;;;;;;;;;-0.80;39.10;;;;;;6191090;23;19904;-82
2023/02/27 05:19:04;;;;;;;;;;;-0.80;53.50;;;;;;6187554;23;20353;-83
2023/02/27 05:21:33;;;;;;;;;;;-0.80;74.30;;;;;;6190351;23;19904;-82
2023/02/27 05:24:15;;;;;;;;;;;-0.80;93.20;;;;;;6189015;23;19900;-82
2023/02/27 05:26:44;;;;;;;;;;;-0.80;74.50;;;;;;6190379;23;19984;-82
2023/02/27 05:29:15;;;;;;;;;;;-0.80;95.60;;;;;;6189824;23;19901;-82
2023/02/27 05:31:45;;;;;;;;;;;-0.80;94.50;;;;;;6190178;23;19979;-82
2023/02/27 05:34:12;;;;;;;;;;;-0.80;96.40;;;;;;6190312;23;19904;-82
2023/02/27 05:36:44;;;;;;;;;;;-0.80;92.40;;;;;;6190869;23;19908;-82
2023/02/27 05:39:10;;;;;;;;;;;-0.80;99.90;;;;;;6188031;23;19929;-83
2023/02/27 05:41:40;;;;;;;;;;;-0.90;99.90;;;;;;6191630;23;20470;-82
2023/02/27 05:44:09;;;;;;;;;;;-0.90;99.90;;;;;;6190555;23;19916;-83
2023/02/27 05:46:35;;;;;;;;;;;-0.90;99.90;;;;;;6190523;23;19904;-82
2023/02/27 05:49:10;;;;;;;;;;;-0.90;99.90;;;;;;6188684;23;19999;-82
2023/02/27 05:51:36;;;;;;;;;;;-0.90;99.90;;;;;;6190831;23;19900;-83
2023/02/27 05:54:05;;;;;;;;;;;-0.90;99.90;;;;;;6190129;23;19911;-82
2023/02/27 05:56:32;;;;;;;;;;;-1.00;99.90;;;;;;6189108;23;19901;-82
2023/02/27 05:59:10;;;;;;;;;;;-1.00;99.90;;;;;;6188444;23;19944;-82
2023/02/27 06:01:35;;;;;;;;;;;-1.00;99.90;;;;;;6191343;23;19904;-82
2023/02/27 06:04:01;;;;;;;;;;;-1.00;99.90;;;;;;6189617;23;19900;-82
2023/02/27 06:06:28;;;;;;;;;;;-1.00;99.90;;;;;;6188237;23;19991;-82
2023/02/27 06:08:54;;;;;;;;;;;-1.00;99.90;;;;;;6189293;23;19958;-82
2023/02/27 06:11:19;;;;;;;;;;;-1.00;99.90;;;;;;6188178;23;19900;-80
2023/02/27 06:13:44;;;;;;;;;;;-1.00;99.90;;;;;;6188955;23;19924;-82
2023/02/27 06:16:11;;;;;;;;;;;-1.00;99.90;;;;;;6189357;23;19901;-83
2023/02/27 06:18:36;;;;;;;;;;;-1.00;99.90;;;;;;6186950;23;19938;-82
2023/02/27 06:21:02;;;;;;;;;;;-1.00;99.90;;;;;;6189507;23;19901;-82
2023/02/27 06:23:28;;;;;;;;;;;-0.90;99.90;;;;;;6189384;23;19911;-82
2023/02/27 06:25:53;;;;;;;;;;;-0.90;99.90;;;;;;6188883;23;19908;-82
2023/02/27 06:28:19;;;;;;;;;;;-0.90;99.90;;;;;;6188262;23;19907;-82
2023/02/27 06:30:44;;;;;;;;;;;-0.80;99.90;;;;;;6189582;23;19907;-82
2023/02/27 06:33:11;;;;;;;;;;;-0.80;99.90;;;;;;6186973;23;19931;-82
2023/02/27 06:35:36;;;;;;;;;;;-0.80;99.90;;;;;;6188944;23;19956;-82
2023/02/27 06:38:02;;;;;;;;;;;-0.70;99.90;;;;;;6189659;23;19907;-82
2023/02/27 06:40:27;;;;;;;;;;;-0.60;99.90;;;;;;6189238;23;20351;-82
2023/02/27 06:42:53;;;;;;;;;;;-0.60;99.90;;;;;;6189577;23;19979;-82
2023/02/27 06:45:18;;;;;;;;;;;-0.60;99.90;;;;;;6189032;23;19935;-85
2023/02/27 06:47:44;;;;;;;;;;;-0.50;99.90;;;;;;6188303;23;19928;-84
2023/02/27 06:50:11;;;;;;;;;;;-0.40;99.90;;;;;;6187832;23;19904;-84
2023/02/27 06:52:37;;;;;;;;;;;-0.30;80.80;;;;;;6184830;23;19904;-84
2023/02/27 06:55:03;;;;;;;;;;;-0.30;66.90;;;;;;6188510;23;19947;-85
2023/02/27 06:57:29;;;;;;;;;;;-0.20;61.10;;;;;;6187003;23;20325;-84
2023/02/27 06:59:54;;;;;;;;;;;-0.10;47.30;;;;;;6186009;23;19900;-80
2023/02/27 07:02:22;;;;;;;;;;;-0.10;65.80;;;;;;6186072;23;19915;-80
2023/02/27 07:04:47;;;;;;;;;;;0.10;99.90;;;;;;6186686;23;19979;-80
2023/02/27 07:07:13;;;;;;;;;;;0.30;99.90;;;;;;6186726;23;19959;-83
2023/02/27 07:09:39;;;;;;;;;;;0.60;99.90;;;;;;6185081;23;20305;-84
2023/02/27 07:12:04;;;;;;;;;;;3.70;99.90;;;;;;6187039;23;19999;-84
2023/02/27 07:14:30;;;;;;;;;;;7.60;99.90;;;;;;6186649;23;19901;-83
2023/02/27 07:16:55;;;;;;;;;;;10.80;99.90;;;;;;6183743;23;19900;-81
2023/02/27 07:19:21;;;;;;;;;;;13.40;99.90;;;;;;6186281;23;19904;-82
2023/02/27 07:21:47;;;;;;;;;;;15.60;99.90;;;;;;6186795;23;19908;-83
2023/02/27 07:24:12;;;;;;;;;;;17.50;99.90;;;;;;6186426;23;20218;-82
2023/02/27 07:26:38;;;;;;;;;;;19.10;99.90;;;;;;6182864;23;19904;-83
2023/02/27 07:29:03;;;;;;;;;;;20.50;99.90;;;;;;6184008;23;20295;-83
2023/02/27 07:31:29;;;;;;;;;;;21.70;99.90;;;;;;6186423;23;19900;-83
2023/02/27 07:33:54;;;;;;;;;;;22.40;99.90;;;;;;6186877;23;20244;-83
2023/02/27 07:36:20;;;;;;;;;;;23.20;99.90;;;;;;6187124;23;20347;-83
2023/02/27 07:38:45;;;;;;;;;;;24.10;99.90;;;;;;6186443;23;19954;-83
2023/02/27 07:41:11;;;;;;;;;;;24.70;99.90;;;;;;6186517;23;19924;-82
2023/02/27 07:43:36;;;;;;;;;;;25.30;99.90;;;;;;6184783;23;20374;-84
2023/02/27 07:46:04;;;;;;;;;;;25.80;99.90;;;;;;6186634;23;20386;-83
2023/02/27 07:48:30;;;;;;;;;;;26.30;99.90;;;;;;6186872;23;19900;-83
2023/02/27 07:50:56;;;;;;;;;;;26.70;99.90;;;;;;6186303;23;20121;-83
2023/02/27 07:53:21;;;;;;;;;;;27.10;99.90;;;;;;6187576;23;19924;-83
2023/02/27 07:55:47;;;;;;;;;;;27.60;99.90;;;;;;6188561;23;19904;-82
2023/02/27 07:58:12;;;;;;;;;;;28.00;99.90;;;;;;6186866;23;19907;-83
2023/02/27 08:00:38;;;;;;;;;;;28.40;99.90;;;;;;6187373;23;20316;-84
2023/02/27 08:03:03;;;;;;;;;;;28.70;99.90;;;;;;6188242;23;19904;-83
2023/02/27 08:05:28;;;;;;;;;;;29.10;99.90;;;;;;6187859;23;20235;-83
2023/02/27 08:07:54;;;;;;;;;;;29.20;99.90;;;;;;6188747;23;19904;-84
2023/02/27 08:10:19;;;;;;;;;;;29.40;99.90;;;;;;6187490;23;19990;-83
2023/02/27 08:12:45;;;;;;;;;;;29.50;99.90;;;;;;6187881;23;19907;-84
2023/02/27 08:15:13;;;;;;;;;;;29.50;99.90;;;;;;6186692;23;19939;-83
2023/02/27 08:17:38;;;;;;;;;;;29.60;99.90;;;;;;6187392;23;20457;-83
2023/02/27 08:20:06;;;;;;;;;;;29.80;99.90;;;;;;6186491;23;19904;-82
2023/02/27 08:22:31;;;;;;;;;;;30.20;99.90;;;;;;6187888;23;19901;-83
2023/02/27 08:24:57;;;;;;;;;;;30.60;99.90;;;;;;6187836;23;19908;-83
2023/02/27 08:27:22;;;;;;;;;;;30.70;99.90;;;;;;6187691;23;20396;-82
2023/02/27 08:29:48;;;;;;;;;;;30.70;99.90;;;;;;6187288;23;19900;-83
2023/02/27 08:32:13;;;;;;;;;;;31.00;99.90;;;;;;6188072;23;19907;-83
2023/02/27 08:34:39;;;;;;;;;;;31.20;99.90;;;;;;6186563;23;19975;-83
2023/02/27 08:37:04;;;;;;;;;;;31.20;99.90;;;;;;6184156;23;19907;-82
2023/02/27 08:39:29;;;;;;;;;;;31.10;99.90;;;;;;6184833;23;19907;-83
2023/02/27 08:41:55;;;;;;;;;;;30.90;99.90;;;;;;6185814;23;19901;-82
2023/02/27 08:44:20;;;;;;;;;;;31.00;99.90;;;;;;6185927;23;19927;-83
2023/02/27 08:46:46;;;;;;;;;;;31.00;99.90;;;;;;6186957;23;19908;-83
2023/02/27 08:49:12;;;;;;;;;;;30.80;99.90;;;;;;6187918;23;19918;-84
2023/02/27 08:51:38;;;;;;;;;;;30.70;99.90;;;;;;6185765;23;19908;-83
2023/02/27 08:54:03;;;;;;;;;;;30.60;99.90;;;;;;6187301;23;19900;-83
2023/02/27 08:56:29;;;;;;;;;;;30.60;99.90;;;;;;6187312;23;19904;-83
2023/02/27 08:58:54;;;;;;;;;;;30.60;99.90;;;;;;6210772;23;20321;-84
2023/02/27 09:01:20;;;;;;;;;;;30.40;99.90;;;;;;6185519;23;19904;-84
2023/02/27 09:03:45;;;;;;;;;;;30.00;99.90;;;;;;6187043;23;20339;-83
2023/02/27 09:06:11;;;;;;;;;;;29.80;99.90;;;;;;6187070;23;19900;-83
2023/02/27 09:08:37;;;;;;;;;;;29.60;99.90;;;;;;6184277;23;20003;-83
2023/02/27 09:11:03;;;;;;;;;;;29.80;99.90;;;;;;6183983;23;19907;-82
2023/02/27 09:13:28;;;;;;;;;;;29.90;99.90;;;;;;6184628;23;19900;-83
2023/02/27 09:15:54;;;;;;;;;;;29.80;99.90;;;;;;6185945;23;20332;-84
2023/02/27 09:18:19;;;;;;;;;;;29.20;99.90;;;;;;6185743;23;20364;-83
2023/02/27 09:20:45;;;;;;;;;;;29.00;99.90;;;;;;6186583;23;19911;-84
2023/02/27 09:23:10;;;;;;;;;;;28.80;99.90;;;;;;6186547;23;20247;-84
2023/02/27 09:25:36;;;;;;;;;;;28.60;99.90;;;;;;6182619;23;20025;-84
2023/02/27 09:28:01;;;;;;;;;;;28.30;99.90;;;;;;6180411;23;20217;-84
2023/02/27 09:30:27;;;;;;;;;;;27.80;99.90;;;;;;6182245;23;19900;-84
2023/02/27 09:32:52;;;;;;;;;;;27.40;99.70;;;;;;6183890;23;19979;-83
2023/02/27 09:35:21;;;;;;;;;;;27.10;98.40;;;;;;6180968;23;19911;-83
2023/02/27 09:37:48;;;;;;;;;;;27.00;98.10;;;;;;6185572;23;19911;-84
2023/02/27 09:40:30;;;;;;;;;;;26.90;97.80;;;;;;6182717;23;19901;-83
2023/02/27 09:42:59;;;;;;;;;;;27.00;98.50;;;;;;6184750;23;19905;-82
2023/02/27 09:45:26;;;;;;;;;;;27.10;98.00;;;;;;6181653;23;19910;-84
2023/02/27 09:47:53;;;;;;;;;;;27.00;97.00;;;;;;6185337;23;19900;-83
2023/02/27 09:50:21;;;;;;;;;;;27.00;96.90;;;;;;6185327;23;19907;-83
2023/02/27 09:52:46;;;;;;;;;;;26.60;95.40;;;;;;6186832;23;19915;-82
2023/02/27 09:55:19;;;;;;;;;;;26.40;95.00;;;;;;6185201;23;20283;-83
2023/02/27 09:57:55;;;;;;;;;;;26.30;94.30;;;;;;6185811;23;19900;-84
2023/02/27 10:00:39;;;;;;;;;;;26.30;93.90;;;;;;6186712;23;19963;-83
2023/02/27 10:03:23;;;;;;;;;;;26.10;93.30;;;;;;6184641;23;19907;-83
2023/02/27 10:05:57;;;;;;;;;;;25.80;92.90;;;;;;6186793;23;19900;-83
2023/02/27 10:08:26;;;;;;;;;;;25.70;92.10;;;;;;6186814;23;19900;-83
2023/02/27 10:10:59;;;;;;;;;;;26.10;93.60;;;;;;6187971;23;20236;-83
2023/02/27 10:13:37;;;;;;;;;;;25.90;91.90;;;;;;6187662;23;19946;-84
2023/02/27 10:16:03;;;;;;;;;;;25.50;90.70;;;;;;6188248;23;19904;-84
2023/02/27 10:18:30;;;;;;;;;;;25.40;90.30;;;;;;6187120;23;20333;-83
2023/02/27 10:21:02;;;;;;;;;;;25.10;89.50;;;;;;6186541;23;19911;-84
2023/02/27 10:23:40;;;;;;;;;;;25.30;89.60;;;;;;6187385;23;19900;-84
2023/02/27 10:26:06;;;;;;;;;;;25.20;89.40;;;;;;6201156;23;19900;-83
2023/02/27 10:28:32;;;;;;;;;;;25.00;88.00;;;;;;6200659;23;19904;-82
2023/02/27 10:30:59;;;;;;;;;;;24.90;87.60;;;;;;6187527;23;19904;-84
2023/02/27 10:33:32;;;;;;;;;;;25.00;87.80;;;;;;6186905;23;19907;-83
2023/02/27 10:35:57;;;;;;;;;;;25.20;89.00;;;;;;6186275;23;19908;-82
2023/02/27 10:38:33;;;;;;;;;;;25.40;90.20;;;;;;6185191;23;19907;-83
2023/02/27 10:41:00;;;;;;;;;;;25.40;90.10;;;;;;6183787;23;19924;-83
2023/02/27 10:43:25;;;;;;;;;;;25.20;89.20;;;;;;6186796;23;19946;-82
2023/02/27 10:45:51;;;;;;;;;;;25.40;90.60;;;;;;6184527;23;20280;-82
2023/02/27 10:48:17;;;;;;;;;;;25.40;90.50;;;;;;6186424;23;19901;-81
2023/02/27 10:50:44;;;;;;;;;;;24.30;83.90;;;;;;6187366;23;19982;-82
2023/02/27 10:53:21;;;;;;;;;;;23.90;81.70;;;;;;6182830;23;19939;-82
2023/02/27 10:55:56;;;;;;;;;;;23.50;79.80;;;;;;6186312;23;19908;-82
2023/02/27 10:58:21;;;;;;;;;;;23.20;78.20;;;;;;6185743;23;19900;-83
2023/02/27 11:00:53;;;;;;;;;;;22.90;76.50;;;;;;6210533;23;19930;-82
2023/02/27 11:03:27;;;;;;;;;;;22.80;76.90;;;;;;6185608;23;19904;-83
2023/02/27 11:05:57;;;;;;;;;;;23.10;78.50;;;;;;6186905;23;19900;-83
2023/02/27 11:08:24;;;;;;;;;;;23.20;80.70;;;;;;6185968;23;19900;-83
2023/02/27 11:10:54;;;;;;;;;;;23.10;78.50;;;;;;6184206;23;19935;-83
2023/02/27 11:13:21;;;;;;;;;;;23.30;79.70;;;;;;6186492;23;19947;-84
2023/02/27 11:15:59;;;;;;;;;;;23.50;81.10;;;;;;6189699;23;20221;-83
2023/02/27 11:18:28;;;;;;;;;;;23.50;80.60;;;;;;6185468;23;19900;-81
2023/02/27 11:21:07;;;;;;;;;;;24.00;84.50;;;;;;6187982;23;19904;-84
2023/02/27 11:23:33;;;;;;;;;;;23.80;83.10;;;;;;6190249;23;19951;-83
2023/02/27 11:26:28;;;;;;;;;;;24.50;88.00;;;;;;6185905;23;19904;-83
2023/02/27 11:29:04;;;;;;;;;;;24.20;85.90;;;;;;6178772;23;19955;-83
2023/02/27 11:31:30;;;;;;;;;;;23.70;81.30;;;;;;6186091;23;19907;-83
2023/02/27 11:33:56;;;;;;;;;;;22.20;71.50;;;;;;6186977;23;19904;-82
2023/02/27 11:36:22;;;;;;;;;;;20.50;60.70;;;;;;6186195;23;19960;-83
2023/02/27 11:38:52;;;;;;;;;;;19.30;55.20;;;;;;6185976;23;20279;-83
2023/02/27 11:41:17;;;;;;;;;;;18.10;51.00;;;;;;6185291;23;20354;-83
2023/02/27 11:43:47;;;;;;;;;;;17.10;47.80;;;;;;6184383;23;19904;-82
2023/02/27 11:46:19;;;;;;;;;;;16.10;43.70;;;;;;6186395;23;19900;-82
2023/02/27 11:48:47;;;;;;;;;;;16.50;47.10;;;;;;6186145;23;19924;-82
2023/02/27 11:51:23;;;;;;;;;;;17.30;52.10;;;;;;6184127;23;19900;-82
2023/02/27 11:54:04;;;;;;;;;;;17.60;54.10;;;;;;6183699;23;19943;-82
2023/02/27 11:56:35;;;;;;;;;;;18.80;59.10;;;;;;6184032;23;19908;-82
2023/02/27 11:59:04;;;;;;;;;;;19.10;61.40;;;;;;6186164;23;19904;-83
2023/02/27 12:01:45;;;;;;;;;;;19.40;62.90;;;;;;6184608;23;20328;-82
2023/02/27 12:04:24;;;;;;;;;;;18.90;60.00;;;;;;6185347;23;19974;-83
2023/02/27 12:06:56;;;;;;;;;;;17.90;54.70;;;;;;6185571;23;20343;-81
2023/02/27 12:09:33;;;;;;;;;;;16.70;49.80;;;;;;6185596;23;19915;-81
2023/02/27 12:12:00;;;;;;;;;;;15.50;46.00;;;;;;6185380;23;19966;-82
2023/02/27 12:14:29;;;;;;;;;;;16.30;52.00;;;;;;6186554;23;20336;-82
2023/02/27 12:16:57;;;;;;;;;;;17.60;57.70;;;;;;6183683;23;19904;-83
2023/02/27 12:19:26;;;;;;;;;;;19.10;66.10;;;;;;6185140;23;19986;-84
2023/02/27 12:22:01;;;;;;;;;;;20.20;73.30;;;;;;6184559;23;20240;-82
2023/02/27 12:24:32;;;;;;;;;;;20.00;70.00;;;;;;6186001;23;19908;-82
2023/02/27 12:27:30;;;;;;;;;;;18.80;62.00;;;;;;6186349;23;19959;-82
2023/02/27 12:30:11;;;;;;;;;;;17.70;56.40;;;;;;6168465;23;20378;-83
2023/02/27 12:32:55;;;;;;;;;;;17.00;55.10;;;;;;6186220;23;20248;-82
2023/02/27 12:35:31;;;;;;;;;;;17.70;58.70;;;;;;6185292;23;19928;-83
2023/02/27 12:37:57;;;;;;;;;;;18.70;66.20;;;;;;6186777;23;19931;-83
2023/02/27 12:40:28;;;;;;;;;;;18.50;63.60;;;;;;6186321;23;19907;-82
2023/02/27 12:42:54;;;;;;;;;;;18.50;63.50;;;;;;6186395;23;20332;-83
2023/02/27 12:45:22;;;;;;;;;;;17.60;58.00;;;;;;6186553;23;19906;-82
2023/02/27 12:48:07;;;;;;;;;;;16.70;54.00;;;;;;6184947;23;19904;-82
2023/02/27 12:50:54;;;;;;;;;;;16.60;54.60;;;;;;6185827;23;20320;-83
2023/02/27 12:53:25;;;;;;;;;;;17.20;58.80;;;;;;6184670;23;19983;-82
2023/02/27 12:55:59;;;;;;;;;;;17.80;62.30;;;;;;6185694;23;19904;-84
2023/02/27 12:58:37;;;;;;;;;;;18.10;64.10;;;;;;6186875;23;19900;-83
2023/02/27 13:01:16;;;;;;;;;;;18.30;64.00;;;;;;6186786;23;19926;-82
2023/02/27 13:03:49;;;;;;;;;;;18.50;65.70;;;;;;6184991;23;19901;-83
2023/02/27 13:06:24;;;;;;;;;;;18.70;67.70;;;;;;6186040;23;19935;-82
2023/02/27 13:09:02;;;;;;;;;;;18.80;68.70;;;;;;6184333;23;19904;-82
2023/02/27 13:11:36;;;;;;;;;;;18.80;69.60;;;;;;6185335;23;19907;-83
2023/02/27 13:14:05;;;;;;;;;;;18.60;68.80;;;;;;6185721;23;19983;-83
2023/02/27 13:16:40;;;;;;;;;;;18.70;66.60;;;;;;6186640;23;19926;-82
2023/02/27 13:19:12;;;;;;;;;;;18.50;66.80;;;;;;6186245;23;20243;-81
2023/02/27 13:21:38;;;;;;;;;;;18.60;67.40;;;;;;6186432;23;19911;-83
2023/02/27 13:24:10;;;;;;;;;;;18.80;67.80;;;;;;6186176;23;19905;-82
2023/02/27 13:26:45;;;;;;;;;;;18.50;66.00;;;;;;6182363;23;19952;-82
2023/02/27 13:29:14;;;;;;;;;;;18.50;66.30;;;;;;6181925;23;19904;-81
2023/02/27 13:32:06;;;;;;;;;;;18.50;67.10;;;;;;6183580;23;19971;-83
2023/02/27 13:34:34;;;;;;;;;;;18.50;66.70;;;;;;6172218;23;20215;-82
2023/02/27 13:37:02;;;;;;;;;;;18.60;67.60;;;;;;6186056;23;19908;-83
2023/02/27 13:39:42;;;;;;;;;;;18.80;69.70;;;;;;6189744;23;19983;-83
2023/02/27 13:42:26;;;;;;;;;;;18.80;70.00;;;;;;6185114;23;19901;-84
2023/02/27 13:45:02;;;;;;;;;;;18.50;68.00;;;;;;6187843;23;19926;-82
2023/02/27 13:47:27;;;;;;;;;;;18.50;77.30;;;;;;6184989;23;20324;-84
2023/02/27 13:49:53;;;;;;;;;;;18.50;68.90;;;;;;6191030;23;19900;-85
2023/02/27 13:52:32;;;;;;;;;;;18.40;68.70;;;;;;6189479;23;19911;-85
2023/02/27 13:54:58;;;;;;;;;;;18.20;66.30;;;;;;6205882;23;19908;-85
2023/02/27 13:57:28;;;;;;;;;;;18.00;65.20;;;;;;6207934;23;20010;-85
2023/02/27 13:59:55;;;;;;;;;;;17.70;62.50;;;;;;6194521;23;19924;-84
2023/02/27 14:02:29;;;;;;;;;;;17.80;64.60;;;;;;6187686;23;19911;-85
2023/02/27 14:04:57;;;;;;;;;;;17.70;63.90;;;;;;6189044;23;19904;-85
2023/02/27 14:07:25;;;;;;;;;;;17.50;62.10;;;;;;6190106;23;19939;-85
2023/02/27 14:09:58;;;;;;;;;;;17.20;59.90;;;;;;6189904;23;20329;-85
2023/02/27 14:12:29;;;;;;;;;;;16.30;56.30;;;;;;6188031;23;20016;-85
2023/02/27 14:14:55;;;;;;;;;;;15.40;52.30;;;;;;6190384;23;19931;-84
2023/02/27 14:17:35;;;;;;;;;;;15.10;53.20;;;;;;6191320;23;19900;-86
2023/02/27 14:20:04;;;;;;;;;;;15.30;55.20;;;;;;6189120;23;19904;-85
2023/02/27 14:22:29;;;;;;;;;;;15.30;55.20;;;;;;6189428;23;19951;-84
2023/02/27 14:24:57;;;;;;;;;;;14.70;53.10;;;;;;6190356;23;20217;-85
2023/02/27 14:27:27;;;;;;;;;;;14.40;51.90;;;;;;6191070;23;19904;-85
2023/02/27 14:29:55;;;;;;;;;;;14.70;53.90;;;;;;6190707;23;19900;-85
2023/02/27 14:32:21;;;;;;;;;;;15.00;55.70;;;;;;6193948;23;20331;-85
2023/02/27 14:34:47;;;;;;;;;;;14.40;52.90;;;;;;6193686;23;19904;-85